Time;durP1;ratioP1;P1;durP2;ratioP2;P2;SDS_P1;SDS_P2;PMS_P1;PMS_P2;Temp;Humidity;BMP_temperature;BMP_pressure;BME280_temperature;BME280_humidity;BME280_pressure;Samples;Min_cycle;Max_cycle;Signal;HPM_P1;HPM_P2
2022/06/17 00:00:01;;;;;;;10.93;7.47;;;;;;;19.36;46.54;94161.69;5002048;28;20042;-75
2022/06/17 00:02:26;;;;;;;12.40;9.10;;;;;;;19.34;46.93;94169.38;5006818;28;20484;-76
2022/06/17 00:04:52;;;;;;;16.48;9.90;;;;;;;19.29;46.86;94164.28;5005415;28;20077;-75
2022/06/17 00:07:17;;;;;;;12.45;9.20;;;;;;;19.32;47.08;94168.94;5008705;28;20084;-75
2022/06/17 00:09:43;;;;;;;12.07;8.60;;;;;;;19.21;46.66;94147.19;5012685;28;20059;-75
2022/06/17 00:12:13;;;;;;;11.65;8.98;;;;;;;19.25;46.65;94158.03;5008884;28;20056;-75
2022/06/17 00:17:23;;;;;;;9.52;8.13;;;;;;;19.15;47.24;94137.06;5006964;28;20119;-75
2022/06/17 00:19:48;;;;;;;12.63;8.70;;;;;;;19.17;47.26;94154.44;5009626;28;20136;-75
2022/06/17 00:22:14;;;;;;;13.23;7.68;;;;;;;19.23;47.37;94161.09;5008998;28;20060;-75
2022/06/17 00:24:39;;;;;;;11.52;8.35;;;;;;;19.07;47.80;94167.72;5011734;28;20056;-75
2022/06/17 00:27:09;;;;;;;10.48;8.52;;;;;;;18.98;47.87;94164.47;5009221;28;20033;-75
2022/06/17 00:29:34;;;;;;;12.93;9.40;;;;;;;19.04;48.05;94171.13;5009570;28;20591;-75
2022/06/17 00:31:59;;;;;;;12.60;8.98;;;;;;;18.99;48.27;94179.50;5007679;28;20420;-74
2022/06/17 00:34:25;;;;;;;13.20;9.88;;;;;;;18.79;48.20;94146.41;5010931;28;20037;-75
2022/06/17 00:36:57;;;;;;;12.68;9.73;;;;;;;18.86;48.42;94157.34;5015915;28;20377;-75
2022/06/17 00:39:27;;;;;;;12.63;9.43;;;;;;;18.72;48.66;94157.06;5009380;28;20034;-75
2022/06/17 00:41:56;;;;;;;12.70;9.52;;;;;;;18.68;48.92;94154.25;5008326;28;20499;-76
2022/06/17 00:44:28;;;;;;;12.90;9.85;;;;;;;18.72;49.23;94163.25;5008861;28;20038;-75
2022/06/17 00:47:04;;;;;;;11.00;8.98;;;;;;;18.61;49.19;94143.38;5009893;28;20038;-75
2022/06/17 00:49:51;;;;;;;12.82;9.23;;;;;;;18.66;49.34;94153.84;5009291;28;20025;-75
2022/06/17 00:52:29;;;;;;;14.23;9.20;;;;;;;18.85;49.11;94167.34;5009780;28;20048;-76
2022/06/17 00:54:59;;;;;;;15.63;9.93;;;;;;;18.73;49.20;94161.31;5010963;28;20683;-75
2022/06/17 00:57:38;;;;;;;13.02;8.73;;;;;;;18.67;49.28;94155.41;5009456;28;20856;-76
2022/06/17 01:00:22;;;;;;;11.32;9.35;;;;;;;18.62;49.66;94158.41;5005906;28;20794;-75
2022/06/17 01:02:56;;;;;;;12.63;9.20;;;;;;;18.55;49.86;94160.94;5009160;28;20037;-75
2022/06/17 01:05:28;;;;;;;11.02;9.48;;;;;;;18.44;49.78;94141.88;5006837;28;20657;-75
2022/06/17 01:08:01;;;;;;;12.45;10.05;;;;;;;18.51;49.79;94160.09;5009521;28;20194;-75
2022/06/17 01:10:28;;;;;;;14.05;9.88;;;;;;;18.45;50.13;94156.13;5010630;28;20100;-75
2022/06/17 01:13:01;;;;;;;16.42;9.80;;;;;;;18.30;49.94;94130.81;5010563;28;20527;-74
2022/06/17 01:15:29;;;;;;;16.17;11.07;;;;;;;18.45;50.03;94164.19;5003494;28;20038;-75
2022/06/17 01:17:55;;;;;;;13.45;10.98;;;;;;;18.35;49.98;94153.97;4989023;28;20503;-75
2022/06/17 01:20:23;;;;;;;12.05;9.73;;;;;;;18.41;50.39;94155.28;4988519;28;20065;-75
2022/06/17 01:22:58;;;;;;;11.52;9.43;;;;;;;18.29;50.45;94139.22;4987919;28;20176;-75
2022/06/17 01:25:33;;;;;;;13.07;10.18;;;;;;;18.42;50.38;94154.13;5003614;28;20014;-75
2022/06/17 01:28:04;;;;;;;14.50;9.88;;;;;;;18.37;50.30;94141.75;4989969;28;20084;-75
2022/06/17 01:30:32;;;;;;;14.27;10.40;;;;;;;18.43;50.12;94140.31;4988160;28;20042;-75
2022/06/17 01:33:03;;;;;;;11.77;9.68;;;;;;;18.41;50.36;94141.81;4988831;28;20038;-75
2022/06/17 01:35:33;;;;;;;13.40;9.85;;;;;;;18.38;50.56;94137.13;4988342;28;20030;-75
2022/06/17 01:37:59;;;;;;;13.98;10.45;;;;;;;18.17;50.57;94104.38;4988457;28;20381;-75
2022/06/17 01:40:28;;;;;;;13.85;10.65;;;;;;;18.17;50.69;94104.38;4989375;28;20026;-75
2022/06/17 01:42:54;;;;;;;15.15;10.95;;;;;;;18.35;50.67;94122.44;4986700;28;20064;-75
2022/06/17 01:45:20;;;;;;;11.90;9.65;;;;;;;18.32;50.77;94117.00;4989641;28;20497;-75
2022/06/17 01:47:46;;;;;;;11.80;9.35;;;;;;;18.09;50.67;94094.63;4988665;28;20041;-75
2022/06/17 01:50:21;;;;;;;11.90;10.05;;;;;;;18.34;50.63;94122.81;4988528;28;20030;-75
2022/06/17 01:53:02;;;;;;;13.75;9.48;;;;;;;18.30;50.45;94113.88;4989189;28;20137;-74
2022/06/17 01:55:32;;;;;;;16.02;10.48;;;;;;;18.11;50.33;94089.66;4988759;28;20030;-74
2022/06/17 01:58:01;;;;;;;12.02;9.85;;;;;;;18.24;50.36;94126.06;4989554;28;20113;-75
2022/06/17 02:00:28;;;;;;;12.50;9.75;;;;;;;18.18;50.55;94122.88;4987789;28;20038;-75
2022/06/17 02:03:12;;;;;;;13.13;8.80;;;;;;;18.17;50.57;94137.47;4988590;28;20030;-75
2022/06/17 02:05:40;;;;;;;12.48;9.57;;;;;;;18.20;50.29;94134.06;4993940;28;20246;-75
2022/06/17 02:08:06;;;;;;;14.40;9.70;;;;;;;18.11;50.57;94121.94;5002824;28;20416;-75
2022/06/17 02:10:38;;;;;;;14.30;10.95;;;;;;;18.14;50.48;94137.41;5008395;28;20025;-75
2022/06/17 02:13:05;;;;;;;12.57;9.45;;;;;;;18.12;50.64;94136.97;5010261;28;20025;-76
2022/06/17 02:15:32;;;;;;;14.30;10.45;;;;;;;17.87;50.80;94112.97;5006523;28;20318;-75
2022/06/17 02:17:59;;;;;;;15.68;10.63;;;;;;;17.78;50.67;94088.16;5007593;28;20084;-75
2022/06/17 02:20:25;;;;;;;13.13;10.02;;;;;;;18.10;50.71;94149.97;5008621;28;20112;-75
2022/06/17 02:22:52;;;;;;;13.13;9.13;;;;;;;18.11;50.69;94148.84;5007963;28;20069;-75
2022/06/17 02:25:26;;;;;;;13.77;9.65;;;;;;;18.06;50.65;94149.13;5008073;28;20032;-75
2022/06/17 02:27:56;;;;;;;10.93;9.45;;;;;;;18.05;50.81;94151.03;5008562;28;20509;-76
2022/06/17 02:30:24;;;;;;;14.13;11.38;;;;;;;17.78;51.06;94125.84;5008810;28;20045;-76
2022/06/17 02:32:51;;;;;;;12.30;9.52;;;;;;;17.94;51.51;94153.50;5007576;28;20042;-75
2022/06/17 02:35:37;;;;;;;12.73;10.88;;;;;;;17.97;51.20;94152.81;5007059;28;20091;-75
2022/06/17 02:38:04;;;;;;;13.25;9.45;;;;;;;17.89;50.76;94132.22;5007985;28;20538;-75
2022/06/17 02:40:34;;;;;;;11.77;9.18;;;;;;;17.90;51.09;94133.00;5006821;28;20377;-75
2022/06/17 02:43:05;;;;;;;13.32;9.57;;;;;;;17.78;50.94;94114.28;5008298;28;20030;-75
2022/06/17 02:45:33;;;;;;;14.30;9.93;;;;;;;17.81;51.26;94125.13;5006680;28;20038;-75
2022/06/17 02:47:59;;;;;;;12.10;9.68;;;;;;;17.85;51.40;94144.03;5007367;28;20088;-76
2022/06/17 02:50:27;;;;;;;12.43;9.90;;;;;;;17.82;51.42;94136.66;5007421;28;20029;-75
2022/06/17 02:52:57;;;;;;;13.35;9.70;;;;;;;17.85;51.38;94136.72;5006433;28;20034;-75
2022/06/17 02:55:36;;;;;;;10.32;9.20;;;;;;;17.86;51.48;94148.28;5012058;28;20443;-75
2022/06/17 02:58:21;;;;;;;12.40;9.40;;;;;;;17.78;51.79;94144.66;5008093;28;20036;-75
2022/06/17 03:00:46;;;;;;;12.93;9.75;;;;;;;17.66;51.54;94123.25;5007260;28;20116;-75
2022/06/17 03:03:15;;;;;;;13.70;9.45;;;;;;;17.74;51.62;94135.75;5007835;28;20064;-75
2022/06/17 03:05:43;;;;;;;14.38;10.57;;;;;;;17.70;51.61;94132.16;5008142;28;20180;-75
2022/06/17 03:08:23;;;;;;;16.23;9.63;;;;;;;17.81;51.58;94146.63;5007809;28;20639;-75
2022/06/17 03:10:51;;;;;;;12.25;10.60;;;;;;;17.80;51.40;94145.06;5007029;28;20057;-75
2022/06/17 03:13:22;;;;;;;13.18;9.68;;;;;;;17.55;51.89;94114.91;5007894;28;20429;-76
2022/06/17 03:15:50;;;;;;;11.02;9.60;;;;;;;17.71;51.95;94139.09;5009136;28;20018;-75
2022/06/17 03:18:16;;;;;;;11.73;9.55;;;;;;;17.62;51.63;94125.06;5007697;28;20752;-75
2022/06/17 03:20:45;;;;;;;12.20;9.10;;;;;;;17.73;51.76;94150.31;5007156;28;20044;-74
2022/06/17 03:23:16;;;;;;;11.18;9.32;;;;;;;17.56;52.38;94129.16;5005961;28;20382;-76
2022/06/17 03:26:16;;;;;;;13.80;10.02;;;;;;;17.70;52.20;94148.31;5012276;28;20029;-76
2022/06/17 03:28:45;;;;;;;12.75;9.82;;;;;;;17.55;52.34;94144.50;5006371;28;20065;-76
2022/06/17 03:31:20;;;;;;;12.82;9.90;;;;;;;17.74;52.32;94151.09;5007931;28;20032;-76
2022/06/17 03:34:38;;;;;;;14.40;9.85;;;;;;;17.76;52.61;94148.81;5006605;28;20143;-77
2022/06/17 03:37:17;;;;;;;12.05;9.50;;;;;;;17.79;52.53;94148.91;5005197;28;20074;-76
2022/06/17 03:39:48;;;;;;;14.75;10.80;;;;;;;17.54;52.73;94104.53;5007060;28;20388;-76
2022/06/17 03:42:22;;;;;;;15.75;10.10;;;;;;;17.73;52.69;94139.56;5006699;28;20092;-76
2022/06/17 03:45:18;;;;;;;14.50;9.73;;;;;;;17.92;52.76;94161.13;5017279;28;20038;-75
2022/06/17 03:48:02;;;;;;;13.50;11.10;;;;;;;17.93;53.46;94160.03;5006283;28;20076;-76
2022/06/17 03:50:27;;;;;;;15.15;11.48;;;;;;;17.99;53.69;94163.22;5009544;28;20033;-76
2022/06/17 04:43:44;;;;;;;17.05;11.27;;;;;;;17.90;55.01;94160.69;5005617;28;20551;-76
2022/06/17 04:46:32;;;;;;;13.25;10.75;;;;;;;17.91;54.89;94178.38;5006480;28;20536;-76
2022/06/17 04:48:59;;;;;;;13.13;10.48;;;;;;;17.96;55.57;94166.59;5009748;28;20028;-76
2022/06/17 04:51:26;;;;;;;16.40;10.82;;;;;;;18.14;55.44;94189.31;5006515;28;20132;-77
2022/06/17 04:53:53;;;;;;;17.55;11.90;;;;;;;18.23;55.56;94189.13;5011118;28;20062;-76
2022/06/17 04:56:32;;;;;;;15.60;10.23;;;;;;;18.31;53.74;94190.81;5005004;28;20076;-77
2022/06/17 04:58:58;;;;;;;18.83;12.32;;;;;;;18.16;53.47;94183.56;5006416;28;20093;-76
2022/06/17 05:01:25;;;;;;;15.80;12.13;;;;;;;18.30;53.64;94191.94;5007256;28;20658;-76
2022/06/17 05:03:57;;;;;;;15.05;11.65;;;;;;;18.38;53.57;94180.22;5004879;28;20099;-76
2022/06/17 05:06:23;;;;;;;18.40;12.85;;;;;;;18.16;53.22;94129.75;5012677;28;20269;-77
2022/06/17 05:08:59;;;;;;;15.65;12.43;;;;;;;18.10;53.41;94163.44;5004752;28;20032;-76
2022/06/17 05:11:39;;;;;;;23.33;13.73;;;;;;;18.15;53.47;94163.94;5007824;28;20030;-77
2022/06/17 05:14:04;;;;;;;19.25;12.50;;;;;;;18.35;53.75;94184.38;5006073;28;20068;-77
2022/06/17 05:16:30;;;;;;;15.88;13.02;;;;;;;18.40;53.26;94188.72;5006114;28;20116;-76
2022/06/17 05:18:55;;;;;;;16.48;11.85;;;;;;;18.15;53.76;94160.47;5005424;28;20029;-76
2022/06/17 05:21:23;;;;;;;16.90;11.63;;;;;;;18.10;53.62;94131.13;5005034;28;20119;-77
2022/06/17 05:23:56;;;;;;;19.00;11.63;;;;;;;18.57;53.49;94169.47;5005807;28;20061;-77
2022/06/17 05:26:22;;;;;;;12.90;11.35;;;;;;;18.77;52.95;94183.72;5006933;28;20118;-77
2022/06/17 05:28:48;;;;;;;18.42;11.90;;;;;;;18.73;53.10;94189.03;5010738;28;20493;-77
2022/06/17 05:31:16;;;;;;;14.73;11.07;;;;;;;18.77;52.94;94181.78;5007449;28;20030;-77
2022/06/17 05:33:42;;;;;;;17.85;12.07;;;;;;;18.41;53.48;94174.13;5004445;28;20495;-77
2022/06/17 05:36:08;;;;;;;17.58;12.45;;;;;;;18.59;53.68;94175.25;5005125;28;20041;-77
2022/06/17 05:38:34;;;;;;;14.88;11.27;;;;;;;18.80;54.42;94159.53;5006705;28;20033;-76
2022/06/17 05:40:59;;;;;;;15.32;11.52;;;;;;;19.17;52.15;94172.53;5005002;28;20022;-76
2022/06/17 05:43:24;;;;;;;15.88;12.13;;;;;;;18.95;51.34;94116.69;4997953;28;20220;-77
2022/06/17 05:45:50;;;;;;;14.48;10.70;;;;;;;19.31;51.84;94151.22;4992051;28;20018;-77
2022/06/17 05:48:15;;;;;;;17.42;10.85;;;;;;;19.18;50.61;94128.25;4993502;28;20029;-76
2022/06/17 05:50:40;;;;;;;17.20;10.95;;;;;;;19.39;51.25;94162.88;4992774;28;20041;-76
2022/06/17 05:53:08;;;;;;;13.07;10.15;;;;;;;19.66;50.33;94168.00;4993669;28;20052;-77
2022/06/17 05:55:36;;;;;;;13.55;9.50;;;;;;;19.87;49.45;94162.16;4991189;28;20478;-77
2022/06/17 05:58:02;;;;;;;15.00;9.52;;;;;;;19.86;50.68;94165.19;4992660;28;20037;-76
2022/06/17 06:00:28;;;;;;;15.63;10.80;;;;;;;19.82;49.31;94124.69;4995545;28;20076;-77
2022/06/17 06:02:56;;;;;;;12.55;10.52;;;;;;;19.68;49.14;94137.97;4993295;28;20065;-77
2022/06/17 06:05:24;;;;;;;16.02;9.90;;;;;;;19.77;49.86;94161.97;4991095;28;20183;-77
2022/06/17 06:07:49;;;;;;;13.80;10.95;;;;;;;19.72;49.22;94134.16;4991812;28;20085;-76
2022/06/17 06:10:16;;;;;;;12.73;9.73;;;;;;;19.88;49.41;94163.72;4991710;28;20037;-77
2022/06/17 06:12:53;;;;;;;13.18;10.05;;;;;;;19.58;49.28;94116.97;4990816;28;20084;-76
2022/06/17 06:15:29;;;;;;;12.27;9.43;;;;;;;19.91;48.71;94156.78;4992671;28;20596;-77
2022/06/17 06:17:54;;;;;;;11.38;10.02;;;;;;;20.18;47.90;94161.09;4991470;28;20036;-77
2022/06/17 06:20:20;;;;;;;13.23;9.80;;;;;;;20.26;47.39;94164.66;4991775;28;20656;-77
2022/06/17 06:22:46;;;;;;;10.52;9.23;;;;;;;20.33;48.34;94162.06;4990068;28;20022;-77
2022/06/17 06:25:14;;;;;;;10.55;8.05;;;;;;;20.15;47.99;94140.94;4990719;28;20030;-77
2022/06/17 06:27:40;;;;;;;10.30;7.57;;;;;;;20.40;48.28;94141.31;4991204;28;20037;-77
2022/06/17 06:30:06;;;;;;;8.57;7.03;;;;;;;20.55;46.35;94139.56;4991203;28;20034;-77
2022/06/17 06:32:31;;;;;;;9.77;7.80;;;;;;;20.58;47.22;94155.78;4990814;28;20310;-76
2022/06/17 06:34:57;;;;;;;8.88;7.63;;;;;;;20.54;46.38;94133.38;4991028;28;20037;-77
2022/06/17 06:37:22;;;;;;;8.85;7.95;;;;;;;20.38;46.88;94100.38;4991044;28;20037;-77
2022/06/17 06:39:47;;;;;;;12.27;7.70;;;;;;;20.70;46.17;94133.16;4990858;28;20033;-76
2022/06/17 06:42:13;;;;;;;9.20;6.57;;;;;;;20.73;46.29;94127.00;4989755;28;20097;-76
2022/06/17 06:44:38;;;;;;;15.15;7.80;;;;;;;20.71;46.96;94139.34;4993698;28;20027;-76
2022/06/17 06:47:04;;;;;;;7.72;6.93;;;;;;;21.00;47.58;94143.94;4996263;28;20092;-76
2022/06/17 06:49:30;;;;;;;8.05;5.90;;;;;;;20.87;46.43;94121.03;4995815;28;20045;-76
2022/06/17 06:51:55;;;;;;;12.23;6.28;;;;;;;21.01;47.05;94140.88;4989905;28;20129;-76
2022/06/17 06:54:21;;;;;;;8.70;6.80;;;;;;;20.86;46.14;94119.44;4989688;28;20116;-75
2022/06/17 06:56:46;;;;;;;7.07;6.35;;;;;;;21.11;45.48;94136.72;4994647;28;20025;-76
2022/06/17 06:59:11;;;;;;;7.97;6.88;;;;;;;21.14;45.34;94130.56;4991013;28;20112;-75
2022/06/17 07:01:38;;;;;;;9.32;7.65;;;;;;;21.33;45.10;94137.69;4990401;28;20034;-76
2022/06/17 07:04:04;;;;;;;11.30;7.72;;;;;;;21.14;44.31;94106.22;4989922;28;20030;-76
2022/06/17 07:06:32;;;;;;;9.90;7.13;;;;;;;21.42;45.24;94152.47;4989919;28;20099;-75
2022/06/17 07:08:58;;;;;;;7.65;6.45;;;;;;;21.28;45.32;94108.28;4991415;28;20030;-75
2022/06/17 07:11:23;;;;;;;8.98;6.20;;;;;;;21.58;44.72;94132.53;4992659;28;20076;-76
2022/06/17 07:13:49;;;;;;;7.80;6.93;;;;;;;21.73;45.07;94147.72;4992296;28;20215;-75
2022/06/17 07:16:14;;;;;;;8.35;6.50;;;;;;;21.41;45.81;94137.38;4991476;28;20022;-75
2022/06/17 07:18:40;;;;;;;12.80;6.60;;;;;;;21.12;46.97;94119.34;4990692;28;20034;-76
2022/06/17 07:21:09;;;;;;;8.20;6.28;;;;;;;21.60;45.99;94132.94;4988357;28;20038;-76
2022/06/17 07:23:37;;;;;;;7.93;7.13;;;;;;;21.26;46.13;94138.44;4989908;28;20100;-75
2022/06/17 07:26:05;;;;;;;13.45;7.60;;;;;;;21.55;46.17;94141.41;4995204;28;20934;-76
2022/06/17 07:28:31;;;;;;;8.32;7.32;;;;;;;20.97;46.11;94109.56;4989165;28;20038;-75
2022/06/17 07:30:57;;;;;;;8.85;7.97;;;;;;;21.31;46.46;94112.97;4991415;28;20500;-75
2022/06/17 07:33:25;;;;;;;10.65;8.52;;;;;;;21.56;45.92;94129.44;4990134;28;20644;-76
2022/06/17 07:35:53;;;;;;;9.02;7.53;;;;;;;21.68;44.35;94107.47;4990389;28;20033;-76
2022/06/17 07:41:07;;;;;;;9.73;7.15;;;;;;;21.66;45.71;94117.88;4989262;28;20041;-76
2022/06/17 07:43:33;;;;;;;9.77;6.35;;;;;;;21.45;46.19;94119.25;4988427;28;20097;-75
2022/06/17 07:46:01;;;;;;;7.57;6.72;;;;;;;21.53;46.16;94103.06;4990052;28;20342;-75
2022/06/17 07:48:27;;;;;;;12.00;6.93;;;;;;;21.87;46.44;94093.66;4990635;28;20057;-76
2022/06/17 07:50:53;;;;;;;9.10;7.63;;;;;;;21.65;44.87;94098.19;4993499;28;20036;-76
2022/06/17 07:53:19;;;;;;;12.50;8.25;;;;;;;21.81;45.01;94109.50;4995928;28;20021;-76
2022/06/17 07:55:45;;;;;;;10.82;8.45;;;;;;;22.03;44.99;94126.66;4988352;28;20030;-75
2022/06/17 07:58:12;;;;;;;8.45;7.28;;;;;;;22.04;44.48;94116.59;4991186;28;20018;-76
2022/06/17 08:00:41;;;;;;;10.18;7.25;;;;;;;21.98;44.66;94080.97;4989749;28;20473;-75
2022/06/17 08:03:06;;;;;;;8.27;6.97;;;;;;;21.84;45.13;94113.38;4990636;28;20437;-75
2022/06/17 08:05:32;;;;;;;9.82;7.95;;;;;;;21.53;44.87;94093.03;4988326;28;20038;-75
2022/06/17 08:07:58;;;;;;;9.93;7.60;;;;;;;21.97;44.71;94117.34;4994804;28;20041;-75
2022/06/17 08:10:29;;;;;;;8.85;7.85;;;;;;;21.92;44.98;94103.38;4994634;28;20474;-76
2022/06/17 08:12:55;;;;;;;13.13;7.60;;;;;;;21.42;46.51;94092.94;4989369;28;20033;-75
2022/06/17 08:15:21;;;;;;;10.82;8.98;;;;;;;21.27;46.75;94118.31;4989398;28;20030;-76
2022/06/17 08:17:47;;;;;;;13.52;9.05;;;;;;;21.21;47.91;94092.78;4988694;28;20029;-76
2022/06/17 08:20:17;;;;;;;14.07;8.20;;;;;;;21.71;47.15;94112.13;4990416;28;20458;-75
2022/06/17 08:22:43;;;;;;;10.05;8.70;;;;;;;21.41;47.03;94104.91;4993809;28;21135;-76
2022/06/17 08:25:09;;;;;;;11.48;7.88;;;;;;;21.22;46.69;94072.69;4989853;28;20104;-76
2022/06/17 08:27:48;;;;;;;11.98;8.98;;;;;;;21.22;46.92;94099.72;4988921;28;20042;-75
2022/06/17 08:30:16;;;;;;;11.82;7.45;;;;;;;21.52;48.08;94109.63;4994814;28;20026;-76
2022/06/17 08:32:55;;;;;;;14.27;8.02;;;;;;;21.57;46.84;94050.56;4989619;28;20057;-75
2022/06/17 08:35:42;;;;;;;20.05;8.38;;;;;;;21.90;47.76;94084.81;4990262;28;20421;-75
2022/06/17 08:38:14;;;;;;;12.20;9.35;;;;;;;21.95;46.27;94089.09;4992594;28;20041;-76
2022/06/17 08:40:54;;;;;;;10.13;8.95;;;;;;;22.09;46.10;94089.94;4988149;28;20386;-76
2022/06/17 08:43:45;;;;;;;9.32;8.15;;;;;;;22.13;46.55;94088.03;4987954;28;20052;-76
2022/06/17 08:46:10;;;;;;;14.68;9.38;;;;;;;22.06;46.48;94087.97;4990255;28;20038;-76
2022/06/17 08:48:45;;;;;;;10.95;8.13;;;;;;;21.81;46.67;94081.63;4988206;28;20477;-75
2022/06/17 08:51:29;;;;;;;11.48;8.57;;;;;;;22.08;47.09;94085.69;4994100;28;20096;-75
2022/06/17 08:54:13;;;;;;;13.38;8.48;;;;;;;22.09;46.04;94094.59;4990789;28;20018;-76
2022/06/17 08:56:46;;;;;;;9.33;8.27;;;;;;;21.98;46.48;94085.63;4990179;28;20546;-75
2022/06/17 08:59:27;;;;;;;9.73;7.88;;;;;;;21.99;47.15;94090.66;4995229;28;20493;-76
2022/06/17 09:01:56;;;;;;;11.60;8.82;;;;;;;21.90;45.85;94063.16;4992895;28;20032;-75
2022/06/17 09:04:36;;;;;;;10.30;8.27;;;;;;;22.35;45.73;94088.91;4988662;28;20034;-76
2022/06/17 09:07:18;;;;;;;9.98;8.95;;;;;;;22.54;44.96;94085.09;4987608;28;20120;-76
2022/06/17 09:09:58;;;;;;;9.00;7.03;;;;;;;22.92;44.64;94079.06;4987677;28;20375;-76
2022/06/17 09:12:33;;;;;;;9.40;7.95;;;;;;;22.96;43.46;94089.91;4988300;28;20029;-76
2022/06/17 09:15:36;;;;;;;15.27;7.75;;;;;;;22.89;43.38;94087.19;4989902;28;20022;-76
2022/06/17 09:18:13;;;;;;;9.00;7.82;;;;;;;22.91;44.63;94087.56;4981525;28;20040;-76
2022/06/17 09:20:42;;;;;;;8.48;7.57;;;;;;;22.74;45.28;94094.47;4997706;28;20025;-75
2022/06/17 09:23:13;;;;;;;10.80;7.18;;;;;;;22.35;44.76;94069.16;4991847;28;20041;-76
2022/06/17 09:25:42;;;;;;;8.70;7.78;;;;;;;22.32;44.40;94073.44;4991572;28;20034;-76
2022/06/17 09:28:14;;;;;;;12.80;9.05;;;;;;;22.59;44.76;94084.75;4993324;28;20026;-76
2022/06/17 09:30:47;;;;;;;10.82;7.65;;;;;;;22.43;44.46;94063.41;4989225;28;20507;-75
2022/06/17 09:33:18;;;;;;;11.57;7.95;;;;;;;22.60;44.20;94083.59;4991462;28;20022;-76
2022/06/17 09:36:06;;;;;;;8.65;6.90;;;;;;;22.65;43.88;94085.94;4995348;28;20064;-76
2022/06/17 09:38:58;;;;;;;10.43;7.45;;;;;;;22.71;42.56;94089.81;4993212;28;20030;-75
2022/06/17 09:41:45;;;;;;;11.85;6.82;;;;;;;22.63;43.16;94082.84;4991818;28;20489;-76
2022/06/17 09:44:24;;;;;;;6.93;6.22;;;;;;;22.87;42.14;94071.31;4992539;28;20034;-77
2022/06/17 09:47:31;;;;;;;8.32;4.90;;;;;;;22.93;39.72;94069.75;4996844;28;20429;-76
2022/06/17 09:50:18;;;;;;;9.90;6.03;;;;;;;23.01;40.95;94074.03;4992664;28;20053;-75
2022/06/17 09:52:54;;;;;;;7.15;5.75;;;;;;;23.10;42.14;94068.22;4991546;28;20053;-76
2022/06/17 09:55:26;;;;;;;7.90;5.40;;;;;;;23.20;40.38;94080.25;4991676;28;20034;-75
2022/06/17 09:58:12;;;;;;;6.38;5.03;;;;;;;22.90;40.70;94058.91;4993878;28;20636;-76
2022/06/17 10:00:52;;;;;;;8.68;5.50;;;;;;;22.97;38.74;94075.19;4991281;28;20029;-76
2022/06/17 10:03:26;;;;;;;6.35;4.53;;;;;;;23.20;39.41;94078.31;4992822;28;20026;-76
2022/06/17 10:05:51;;;;;;;3.33;2.90;;;;;;;23.31;33.98;94078.34;4997423;28;20057;-76
2022/06/17 10:08:28;;;;;;;6.00;2.50;;;;;;;23.13;32.96;94057.38;4996064;28;20473;-75
2022/06/17 10:11:29;;;;;;;4.65;3.80;;;;;;;23.37;35.52;94074.03;4995370;28;20033;-76
2022/06/17 10:14:04;;;;;;;4.00;3.60;;;;;;;23.44;36.15;94076.78;4986802;28;20489;-76
2022/06/17 10:19:53;;;;;;;6.65;4.60;;;;;;;23.22;38.67;94075.22;4991182;28;20041;-75
2022/06/17 10:22:30;;;;;;;6.00;4.10;;;;;;;23.23;36.83;94074.03;4989323;28;20489;-76
2022/06/17 10:25:23;;;;;;;8.35;4.68;;;;;;;23.17;36.68;94074.44;4990069;28;20034;-75
2022/06/17 10:28:14;;;;;;;5.03;3.90;;;;;;;22.94;36.00;94055.03;4992405;28;20030;-75
2022/06/17 10:30:56;;;;;;;5.78;3.65;;;;;;;23.09;35.20;94069.38;4990089;28;20030;-75
2022/06/17 10:33:23;;;;;;;5.03;3.47;;;;;;;23.04;34.93;94053.50;4990035;28;20073;-76
2022/06/17 10:35:49;;;;;;;6.63;3.08;;;;;;;23.02;34.85;94044.97;4990050;28;20084;-75
2022/06/17 10:38:22;;;;;;;3.47;2.90;;;;;;;23.12;33.52;94058.53;4991832;28;20681;-75
2022/06/17 10:40:48;;;;;;;4.50;3.25;;;;;;;23.24;33.90;94056.59;4990805;28;20032;-75
2022/06/17 10:43:21;;;;;;;3.85;3.00;;;;;;;23.40;33.88;94065.16;4989960;28;20050;-76
2022/06/17 10:45:48;;;;;;;2.95;2.65;;;;;;;23.30;32.22;94044.22;4990017;28;20466;-75
2022/06/17 10:48:32;;;;;;;3.90;2.85;;;;;;;23.42;30.83;94062.81;4997626;28;20148;-77
2022/06/17 10:51:00;;;;;;;4.18;2.47;;;;;;;23.46;31.74;94036.47;4991348;28;20142;-76
2022/06/17 10:53:38;;;;;;;3.47;2.53;;;;;;;23.83;32.18;94061.25;4993901;28;21336;-76
2022/06/17 10:56:09;;;;;;;5.15;2.60;;;;;;;23.83;32.60;94063.97;4990122;28;20126;-76
2022/06/17 10:58:34;;;;;;;3.28;2.97;;;;;;;23.59;34.37;94040.34;4990646;28;20058;-75
2022/06/17 11:01:07;;;;;;;4.35;3.30;;;;;;;23.56;34.09;94057.41;4990760;28;20109;-76
2022/06/17 11:03:42;;;;;;;6.15;3.20;;;;;;;23.38;34.55;94045.75;4990835;28;20540;-75
2022/06/17 11:06:13;;;;;;;3.72;3.30;;;;;;;23.58;33.26;94060.50;4990550;28;20033;-76
2022/06/17 11:09:01;;;;;;;3.97;3.22;;;;;;;23.63;34.40;94062.81;4990595;28;20042;-76
2022/06/17 11:14:29;;;;;;;5.68;3.63;;;;;;;23.42;34.01;94062.81;4991912;28;21157;-76
2022/06/17 11:16:55;;;;;;;6.55;4.13;;;;;;;23.19;34.94;94043.44;4992270;28;20104;-76
2022/06/17 11:19:24;;;;;;;5.65;4.03;;;;;;;23.30;33.85;94063.22;4990779;28;20466;-76
2022/06/17 11:21:53;;;;;;;5.43;4.13;;;;;;;23.29;34.63;94059.72;4992253;28;20023;-76
2022/06/17 11:24:33;;;;;;;7.38;5.00;;;;;;;23.42;38.11;94016.66;4990405;28;20188;-76
2022/06/17 11:27:07;;;;;;;7.93;6.50;;;;;;;23.70;39.50;94053.91;4989502;28;20076;-75
2022/06/17 11:29:40;;;;;;;6.30;5.22;;;;;;;23.55;37.14;94028.72;4995704;28;20389;-76
2022/06/17 11:32:21;;;;;;;7.25;5.32;;;;;;;23.86;37.74;94046.88;4989282;28;20053;-76
2022/06/17 11:35:18;;;;;;;5.45;4.78;;;;;;;23.93;37.15;94043.38;4990588;28;20153;-76
2022/06/17 11:37:47;;;;;;;6.00;5.40;;;;;;;24.02;38.73;94039.06;4988357;28;21051;-76
2022/06/17 11:40:22;;;;;;;7.35;6.10;;;;;;;23.90;38.42;94020.50;4988426;28;20041;-75
2022/06/17 11:42:53;;;;;;;6.60;5.88;;;;;;;23.87;38.84;94043.00;4986620;28;20049;-75
2022/06/17 11:45:23;;;;;;;6.85;6.15;;;;;;;23.52;40.93;94043.06;4991630;28;20200;-75
2022/06/17 11:47:55;;;;;;;7.10;6.00;;;;;;;23.35;40.63;94036.47;4994467;28;20045;-76
2022/06/17 11:50:28;;;;;;;8.85;6.32;;;;;;;23.08;40.29;94027.91;4990842;28;20505;-75
2022/06/17 11:53:05;;;;;;;8.25;5.85;;;;;;;23.42;42.16;94038.38;4988921;28;20018;-76
2022/06/17 11:55:39;;;;;;;7.43;6.72;;;;;;;23.41;40.84;94029.47;4990664;28;20034;-76
2022/06/17 11:58:04;;;;;;;7.30;6.53;;;;;;;23.39;41.95;94031.03;4989725;28;20026;-76
2022/06/17 12:00:45;;;;;;;11.27;6.57;;;;;;;23.51;40.97;94027.94;4989775;28;20064;-76
2022/06/17 12:03:13;;;;;;;7.78;6.45;;;;;;;23.27;41.54;94020.56;4991594;28;20029;-76
2022/06/17 12:05:41;;;;;;;7.13;6.43;;;;;;;23.38;41.19;94010.47;4987284;28;20022;-76
2022/06/17 12:08:24;;;;;;;6.80;6.10;;;;;;;23.57;41.27;94010.09;4990083;28;20052;-75
2022/06/17 12:10:58;;;;;;;6.85;5.85;;;;;;;23.53;40.99;94006.59;4989502;28;20029;-76
2022/06/17 12:13:39;;;;;;;7.32;6.47;;;;;;;23.59;40.59;94013.19;4995014;28;21103;-76
2022/06/17 12:16:14;;;;;;;7.47;6.53;;;;;;;23.47;39.66;93975.56;4991151;28;20471;-75
2022/06/17 12:18:56;;;;;;;7.05;5.97;;;;;;;23.51;40.41;93995.38;4990012;28;20030;-76
2022/06/17 12:21:38;;;;;;;7.60;6.65;;;;;;;23.75;40.21;94010.84;4990023;28;20030;-76
2022/06/17 12:24:23;;;;;;;6.68;5.43;;;;;;;23.83;39.95;94006.94;4992938;28;20042;-76
2022/06/17 12:26:52;;;;;;;9.13;6.38;;;;;;;24.02;38.96;94001.03;4987511;28;20432;-76
2022/06/17 12:29:35;;;;;;;7.15;5.78;;;;;;;24.05;38.04;94007.66;4989555;28;20062;-76
2022/06/17 12:32:27;;;;;;;8.27;5.80;;;;;;;23.68;38.46;93975.53;4990560;28;20037;-76
2022/06/17 12:35:08;;;;;;;5.80;4.75;;;;;;;23.89;38.25;93999.94;4994297;28;20037;-76
2022/06/17 12:37:48;;;;;;;7.40;4.43;;;;;;;23.82;38.36;93999.94;4991864;28;20027;-75
2022/06/17 12:40:32;;;;;;;4.95;4.50;;;;;;;23.84;37.30;93992.19;4993453;28;20128;-76
2022/06/17 12:43:02;;;;;;;11.57;5.33;;;;;;;23.99;37.76;93999.13;4992909;28;20054;-77
2022/06/17 12:45:41;;;;;;;14.00;4.95;;;;;;;24.30;37.24;93996.69;4990969;28;20117;-76
2022/06/17 12:48:06;;;;;;;4.78;4.38;;;;;;;24.38;35.80;94001.69;4993914;28;20456;-76
2022/06/17 12:53:45;;;;;;;5.88;4.32;;;;;;;24.69;35.83;93991.78;4990701;28;20033;-76